Time;durP1;ratioP1;P1;durP2;ratioP2;P2;SDS_P1;SDS_P2;PMS_P1;PMS_P2;Temp;Humidity;BMP_temperature;BMP_pressure;BME280_temperature;BME280_humidity;BME280_pressure;Samples;Min_cycle;Max_cycle;Signal;HPM_P1;HPM_P2
2022/06/10 00:00:22;;;;;;;;;;;;;;;10.91;100.00;96394.53;1031323;28;20339;-71
2022/06/10 00:00:52;;;;;;;;;;;;;;;10.91;100.00;96394.53;1035087;28;19914;-70
2022/06/10 00:01:22;;;;;;;;;;;;;;;10.92;100.00;96391.63;1034957;28;19910;-71
2022/06/10 00:01:53;;;;;;;;;;;;;;;10.92;100.00;96396.09;1039131;28;19910;-69
2022/06/10 00:02:23;;;;;;;;;;;;;;;10.91;100.00;96395.31;1038682;28;19910;-71
2022/06/10 00:02:53;;;;;;;;;;;;;;;10.91;100.00;96392.69;1035048;28;20330;-72
2022/06/10 00:03:25;;;;;;;;;;;;;;;10.93;100.00;96392.44;1029117;28;19917;-72
2022/06/10 00:03:55;;;;;;;;;;;;;;;10.91;100.00;96394.53;1026849;28;19921;-71
2022/06/10 00:04:26;;;;;;;;;;;;;;;10.91;100.00;96397.94;1025135;28;19976;-74
2022/06/10 00:04:56;;;;;;;;;;;;;;;10.92;100.00;96402.13;1023418;28;20288;-71
2022/06/10 00:05:28;;;;;;;;;;;;;;;10.92;100.00;96396.88;1031297;28;19906;-70
2022/06/10 00:05:59;;;;;;;;;;;;;;;10.93;100.00;96397.69;1035199;28;19988;-70
2022/06/10 00:06:29;;;;;;;;;;;;;;;10.92;100.00;96402.13;1031677;28;20048;-72
2022/06/10 00:07:00;;;;;;;;;;;;;;;10.93;100.00;96397.69;1035303;28;19968;-71
2022/06/10 00:07:34;;;;;;;;;;;;;;;10.91;100.00;96395.31;1034529;28;20437;-71
2022/06/10 00:08:07;;;;;;;;;;;;;;;10.92;100.00;96393.47;1034952;28;19920;-73
2022/06/10 00:08:38;;;;;;;;;;;;;;;10.92;100.00;96399.50;1026985;28;20292;-71
2022/06/10 00:09:09;;;;;;;;;;;;;;;10.90;100.00;96399.00;1027098;28;19973;-69
2022/06/10 00:09:39;;;;;;;;;;;;;;;10.89;100.00;96397.38;1025841;28;19941;-71
2022/06/10 00:10:10;;;;;;;;;;;;;;;10.90;100.00;96393.72;1031141;28;19917;-71
2022/06/10 00:10:41;;;;;;;;;;;;;;;10.90;100.00;96395.53;1030971;28;19910;-71
2022/06/10 00:11:11;;;;;;;;;;;;;;;10.89;100.00;96397.38;1026953;28;19949;-70
2022/06/10 00:11:41;;;;;;;;;;;;;;;10.90;100.00;96398.16;1023527;28;19907;-71
2022/06/10 00:12:12;;;;;;;;;;;;;;;10.90;100.00;96393.72;1026497;28;19914;-71
2022/06/10 00:12:42;;;;;;;;;;;;;;;10.90;100.00;96398.16;1027430;28;19911;-71
2022/06/10 00:13:13;;;;;;;;;;;;;;;10.88;100.00;96398.44;1027145;28;19991;-72
2022/06/10 00:13:44;;;;;;;;;;;;;;;10.87;100.00;96402.09;1027144;28;19913;-71
2022/06/10 00:14:14;;;;;;;;;;;;;;;10.85;100.00;96398.94;1022728;29;19965;-71
2022/06/10 00:14:44;;;;;;;;;;;;;;;10.85;100.00;96396.28;1021329;28;19922;-71
2022/06/10 00:15:15;;;;;;;;;;;;;;;10.85;100.00;96396.28;1022373;29;19910;-73
2022/06/10 00:15:45;;;;;;;;;;;;;;;10.84;100.00;96397.34;1023521;28;19911;-71
2022/06/10 00:16:17;;;;;;;;;;;;;;;10.85;100.00;96398.94;1030652;28;20186;-70
2022/06/10 00:16:47;;;;;;;;;;;;;;;10.84;100.00;96392.09;1020450;29;20074;-70
2022/06/10 00:17:18;;;;;;;;;;;;;;;10.83;100.00;96396.56;1019166;29;20546;-70
2022/06/10 00:17:48;;;;;;;;;;;;;;;10.84;100.00;96399.97;1023159;29;19911;-72
2022/06/10 00:18:18;;;;;;;;;;;;;;;10.84;100.00;96399.97;1023307;29;20028;-70
2022/06/10 00:18:49;;;;;;;;;;;;;;;10.83;100.00;96398.38;1023500;28;20118;-71
2022/06/10 00:19:19;;;;;;;;;;;;;;;10.83;100.00;96395.75;1031024;28;19913;-71
2022/06/10 00:19:49;;;;;;;;;;;;;;;10.82;100.00;96400.19;1026956;28;19910;-71
2022/06/10 00:20:21;;;;;;;;;;;;;;;10.82;100.00;96394.16;1028567;28;20030;-72
2022/06/10 00:20:51;;;;;;;;;;;;;;;10.82;100.00;96396.78;1031227;28;20016;-70
2022/06/10 00:21:25;;;;;;;;;;;;;;;10.81;100.00;96396.00;1031434;28;19917;-71
2022/06/10 00:21:55;;;;;;;;;;;;;;;10.83;100.00;96395.75;1034894;28;19976;-72
2022/06/10 00:22:25;;;;;;;;;;;;;;;10.84;100.00;96402.59;1027021;28;19949;-69
2022/06/10 00:22:56;;;;;;;;;;;;;;;10.83;100.00;96398.38;1027103;28;19957;-69
2022/06/10 00:23:26;;;;;;;;;;;;;;;10.83;100.00;96396.56;1023301;29;19910;-69
2022/06/10 00:23:56;;;;;;;;;;;;;;;10.83;100.00;96403.63;1019259;29;19918;-71
2022/06/10 00:24:27;;;;;;;;;;;;;;;10.82;100.00;96402.03;1027037;28;19915;-71
2022/06/10 00:24:57;;;;;;;;;;;;;;;10.80;100.00;96398.88;1019388;29;19982;-71
2022/06/10 00:25:27;;;;;;;;;;;;;;;10.82;100.00;96404.66;1028657;28;20139;-69
2022/06/10 00:25:58;;;;;;;;;;;;;;;10.82;100.00;96402.81;1031398;28;19910;-70
2022/06/10 00:26:28;;;;;;;;;;;;;;;10.81;100.00;96395.22;1027162;28;19914;-70
2022/06/10 00:26:58;;;;;;;;;;;;;;;10.80;100.00;96397.06;1035502;28;20061;-72
2022/06/10 00:27:29;;;;;;;;;;;;;;;10.81;100.00;96400.47;1039251;28;20358;-72
2022/06/10 00:27:59;;;;;;;;;;;;;;;10.80;100.00;96399.69;1035376;28;20283;-71
2022/06/10 00:28:29;;;;;;;;;;;;;;;10.81;100.00;96396.00;1038938;28;19916;-71
2022/06/10 00:29:00;;;;;;;;;;;;;;;10.79;100.00;96407.78;1031106;28;19920;-71
2022/06/10 00:29:31;;;;;;;;;;;;;;;10.78;100.00;96396.50;1027077;28;20562;-72
2022/06/10 00:30:02;;;;;;;;;;;;;;;10.79;100.00;96399.91;1027048;28;19930;-71
2022/06/10 00:30:33;;;;;;;;;;;;;;;10.78;100.00;96401.75;1023470;28;19921;-72
2022/06/10 00:31:03;;;;;;;;;;;;;;;10.79;100.00;96397.28;1027492;28;19914;-70
2022/06/10 00:31:34;;;;;;;;;;;;;;;10.79;100.00;96402.53;1023260;28;20219;-72
2022/06/10 00:32:04;;;;;;;;;;;;;;;10.77;100.00;96405.41;1026817;28;20017;-71
2022/06/10 00:32:34;;;;;;;;;;;;;;;10.78;100.00;96409.63;1022937;29;19917;-72
2022/06/10 00:33:05;;;;;;;;;;;;;;;10.77;100.00;96402.00;1027025;28;19982;-72
2022/06/10 00:33:35;;;;;;;;;;;;;;;10.78;100.00;96398.34;1023153;29;19907;-71
2022/06/10 00:34:06;;;;;;;;;;;;;;;10.79;100.00;96405.16;1023030;28;19914;-70
2022/06/10 00:34:36;;;;;;;;;;;;;;;10.80;100.00;96404.94;1027328;28;19969;-70
2022/06/10 00:35:07;;;;;;;;;;;;;;;10.80;100.00;96410.19;1034028;28;19993;-68
2022/06/10 00:35:37;;;;;;;;;;;;;;;10.79;100.00;96407.78;1040901;28;19948;-71
2022/06/10 00:36:08;;;;;;;;;;;;;;;10.79;100.00;96408.56;1043817;28;19909;-68
2022/06/10 00:36:38;;;;;;;;;;;;;;;10.78;100.00;96401.75;1043805;28;19913;-71
2022/06/10 00:37:08;;;;;;;;;;;;;;;10.77;100.00;96410.66;1043350;28;20015;-71
2022/06/10 00:37:39;;;;;;;;;;;;;;;10.77;100.00;96412.50;1043934;28;19913;-73
2022/06/10 00:38:12;;;;;;;;;;;;;;;10.78;100.00;96406.22;1039165;28;19909;-71
2022/06/10 00:38:43;;;;;;;;;;;;;;;10.78;100.00;96406.22;1039448;28;20005;-70
2022/06/10 00:39:13;;;;;;;;;;;;;;;10.78;100.00;96409.63;1038791;28;19943;-71
2022/06/10 00:39:43;;;;;;;;;;;;;;;10.78;100.00;96414.88;1039842;28;19959;-70
2022/06/10 00:40:15;;;;;;;;;;;;;;;10.78;100.00;96416.69;1043636;28;19913;-70
2022/06/10 00:40:49;;;;;;;;;;;;;;;10.77;100.00;96415.13;1034998;28;20453;-70
2022/06/10 00:41:20;;;;;;;;;;;;;;;10.77;100.00;96415.13;1035244;28;19913;-70
2022/06/10 00:41:51;;;;;;;;;;;;;;;10.76;100.00;96414.31;1034921;28;19972;-70
2022/06/10 00:42:21;;;;;;;;;;;;;;;10.76;100.00;96413.53;1034379;28;19916;-71
2022/06/10 00:42:54;;;;;;;;;;;;;;;10.75;100.00;96411.94;1031138;28;19921;-70
2022/06/10 00:43:25;;;;;;;;;;;;;;;10.77;100.00;96412.50;1027459;28;19910;-71
2022/06/10 00:43:56;;;;;;;;;;;;;;;10.75;100.00;96417.97;1027378;28;19954;-70
2022/06/10 00:44:33;;;;;;;;;;;;;;;10.77;100.00;96415.91;1027526;28;19914;-69
2022/06/10 00:45:04;;;;;;;;;;;;;;;10.77;100.00;96415.91;1032247;28;19925;-69
2022/06/10 00:45:53;;;;;;;;;;;;;;;10.77;100.00;96413.28;1028424;28;19917;-70
2022/06/10 00:46:24;;;;;;;;;;;;;;;10.77;100.00;96407.25;1034691;28;19933;-70
2022/06/10 00:46:55;;;;;;;;;;;;;;;10.75;100.00;96410.09;1027159;28;19974;-70
2022/06/10 00:47:35;;;;;;;;;;;;;;;10.74;100.00;96410.38;1022251;28;20625;-72
2022/06/10 00:48:07;;;;;;;;;;;;;;;10.75;100.00;96404.84;1020834;29;20299;-71
2022/06/10 00:48:49;;;;;;;;;;;;;;;10.74;100.00;96411.16;1022069;28;19911;-71
2022/06/10 00:49:20;;;;;;;;;;;;;;;10.76;100.00;96410.91;1030767;28;19992;-72
2022/06/10 00:50:17;;;;;;;;;;;;;;;10.74;100.00;96413.00;1027543;28;20536;-70
2022/06/10 00:50:47;;;;;;;;;;;;;;;10.75;100.00;96412.72;1028239;28;19910;-69
2022/06/10 00:51:24;;;;;;;;;;;;;;;10.78;100.00;96411.47;1035280;28;20316;-70
2022/06/10 00:51:54;;;;;;;;;;;;;;;10.75;100.00;96411.94;1028233;28;19917;-70
2022/06/10 00:52:29;;;;;;;;;;;;;;;10.75;100.00;96411.94;1026835;28;19949;-70
2022/06/10 00:53:00;;;;;;;;;;;;;;;10.74;100.00;96411.16;1020548;29;19907;-72
2022/06/10 00:53:32;;;;;;;;;;;;;;;10.73;100.00;96414.81;1020000;28;19930;-71
2022/06/10 00:54:07;;;;;;;;;;;;;;;10.71;100.00;96411.66;1023227;29;19915;-71
2022/06/10 00:54:40;;;;;;;;;;;;;;;10.73;100.00;96414.00;1022778;29;19969;-71
2022/06/10 00:55:11;;;;;;;;;;;;;;;10.73;100.00;96409.59;1019486;29;19958;-72
2022/06/10 00:55:41;;;;;;;;;;;;;;;10.73;100.00;96412.19;1019918;29;19907;-71
2022/06/10 00:56:13;;;;;;;;;;;;;;;10.74;100.00;96410.38;1022225;28;19918;-71
2022/06/10 00:56:45;;;;;;;;;;;;;;;10.73;100.00;96411.38;1022442;29;20399;-70
2022/06/10 00:57:38;;;;;;;;;;;;;;;10.72;100.00;96412.44;1019404;29;19974;-71
2022/06/10 00:58:11;;;;;;;;;;;;;;;10.70;100.00;96410.06;1016558;28;20396;-71
2022/06/10 00:58:49;;;;;;;;;;;;;;;10.70;100.00;96402.19;1026506;28;19913;-70
2022/06/10 00:59:24;;;;;;;;;;;;;;;10.71;100.00;96405.59;1032497;28;20045;-70
2022/06/10 01:00:14;;;;;;;;;;;;;;;10.69;100.00;96416.34;1034754;28;19917;-70
2022/06/10 01:00:45;;;;;;;;;;;;;;;10.67;100.00;96405.31;1030674;28;19906;-71
2022/06/10 01:01:15;;;;;;;;;;;;;;;10.69;100.00;96403.22;1024360;28;19915;-70
2022/06/10 01:01:45;;;;;;;;;;;;;;;10.67;100.00;96410.56;1024062;28;19943;-70
2022/06/10 01:02:20;;;;;;;;;;;;;;;10.65;100.00;96407.38;1026503;28;20295;-70
2022/06/10 01:02:50;;;;;;;;;;;;;;;10.66;100.00;96408.16;1031406;28;19906;-71
2022/06/10 01:03:20;;;;;;;;;;;;;;;10.65;100.00;96406.59;1035239;28;20017;-71
2022/06/10 01:03:51;;;;;;;;;;;;;;;10.66;100.00;96405.53;1030844;28;20470;-71
2022/06/10 01:04:21;;;;;;;;;;;;;;;10.66;100.00;96403.69;1026996;28;20447;-69
2022/06/10 01:04:55;;;;;;;;;;;;;;;10.65;100.00;96403.97;1027097;28;19910;-70
2022/06/10 01:05:26;;;;;;;;;;;;;;;10.64;100.00;96405.00;1020826;29;19922;-70
2022/06/10 01:05:56;;;;;;;;;;;;;;;10.63;100.00;96404.22;1020204;28;20458;-71
2022/06/10 01:06:26;;;;;;;;;;;;;;;10.62;100.00;96406.03;1030497;28;20385;-69
2022/06/10 01:06:57;;;;;;;;;;;;;;;10.61;100.00;96409.69;1033172;28;19916;-70
2022/06/10 01:07:29;;;;;;;;;;;;;;;10.60;100.00;96408.13;1031038;28;19914;-72
2022/06/10 01:08:02;;;;;;;;;;;;;;;10.57;100.00;96413.06;1032609;28;20013;-71
2022/06/10 01:08:32;;;;;;;;;;;;;;;10.56;100.00;96409.66;1030936;28;20363;-70
2022/06/10 01:09:02;;;;;;;;;;;;;;;10.55;100.00;96417.75;1027789;28;19910;-71
2022/06/10 01:09:33;;;;;;;;;;;;;;;10.54;100.00;96411.72;1025408;28;20347;-71
2022/06/10 01:10:04;;;;;;;;;;;;;;;10.53;100.00;96406.72;1027203;28;20096;-71
2022/06/10 01:11:00;;;;;;;;;;;;;;;10.52;100.00;96416.41;1027124;28;20045;-67
2022/06/10 01:11:30;;;;;;;;;;;;;;;10.50;100.00;96413.25;1028738;28;20498;-71
2022/06/10 01:12:07;;;;;;;;;;;;;;;10.48;100.00;96412.69;1025929;28;19947;-70
2022/06/10 01:12:40;;;;;;;;;;;;;;;10.47;100.00;96411.13;1030804;28;19932;-70
2022/06/10 01:13:26;;;;;;;;;;;;;;;10.46;100.00;96409.53;1024122;28;19902;-70
2022/06/10 01:13:56;;;;;;;;;;;;;;;10.46;100.00;96411.34;1026093;28;19913;-72
2022/06/10 01:14:39;;;;;;;;;;;;;;;10.45;100.00;96412.41;1027114;28;20072;-75
2022/06/10 01:15:28;;;;;;;;;;;;;;;10.45;100.00;96407.16;1034493;28;19928;-71
2022/06/10 01:16:06;;;;;;;;;;;;;;;10.42;100.00;96411.03;1030938;28;19937;-71
2022/06/10 01:16:47;;;;;;;;;;;;;;;10.44;100.00;96413.44;1036430;28;20270;-71
2022/06/10 01:17:20;;;;;;;;;;;;;;;10.42;100.00;96408.41;1039346;28;19960;-70
2022/06/10 01:17:56;;;;;;;;;;;;;;;10.40;100.00;96413.13;1034730;28;19905;-71
2022/06/10 01:18:26;;;;;;;;;;;;;;;10.40;100.00;96413.13;1037171;28;19909;-71
2022/06/10 01:19:12;;;;;;;;;;;;;;;10.40;100.00;96420.22;1039093;28;19948;-70
2022/06/10 01:19:58;;;;;;;;;;;;;;;10.36;100.00;96412.03;1037757;28;19909;-70
2022/06/10 01:20:52;;;;;;;;;;;;;;;10.34;100.00;96421.97;1031987;28;19925;-71
2022/06/10 01:21:22;;;;;;;;;;;;;;;10.33;100.00;96415.94;1018772;29;20161;-72
2022/06/10 01:21:52;;;;;;;;;;;;;;;10.32;100.00;96410.94;1018409;29;19999;-71
2022/06/10 01:22:25;;;;;;;;;;;;;;;10.33;100.00;96415.16;1030756;28;19988;-71
2022/06/10 01:23:08;;;;;;;;;;;;;;;10.32;100.00;96418.78;1035286;28;19909;-69
2022/06/10 01:23:44;;;;;;;;;;;;;;;10.30;100.00;96421.69;1031873;28;20395;-73
2022/06/10 01:24:24;;;;;;;;;;;;;;;10.29;100.00;96421.91;1030835;28;20168;-72
2022/06/10 01:25:13;;;;;;;;;;;;;;;10.28;100.00;96420.31;1034617;28;19916;-70
2022/06/10 01:26:01;;;;;;;;;;;;;;;10.27;100.00;96416.13;1034866;28;20114;-70
2022/06/10 01:27:48;;;;;;;;;;;;;;;10.27;100.00;96421.38;1032614;28;20426;-69
2022/06/10 01:28:37;;;;;;;;;;;;;;;10.26;100.00;96414.53;1027001;28;19910;-72
2022/06/10 01:29:12;;;;;;;;;;;;;;;10.25;100.00;96418.16;1034298;28;19909;-71
2022/06/10 01:30:01;;;;;;;;;;;;;;;10.27;100.00;96424.00;1031096;28;20461;-72
2022/06/10 01:30:37;;;;;;;;;;;;;;;10.25;100.00;96420.78;1038977;28;19905;-69
2022/06/10 01:31:17;;;;;;;;;;;;;;;10.24;100.00;96421.81;1038878;28;20341;-68
2022/06/10 01:31:49;;;;;;;;;;;;;;;10.24;100.00;96414.75;1043549;28;19934;-69
2022/06/10 01:32:25;;;;;;;;;;;;;;;10.23;100.00;96420.22;1038352;28;19958;-70
2022/06/10 01:33:14;;;;;;;;;;;;;;;10.22;100.00;96414.19;1038992;28;20317;-71
2022/06/10 01:33:49;;;;;;;;;;;;;;;10.22;100.00;96418.63;1038952;28;20367;-71
2022/06/10 01:34:26;;;;;;;;;;;;;;;10.21;100.00;96417.84;1038914;28;19909;-72
2022/06/10 01:35:14;;;;;;;;;;;;;;;10.20;100.00;96412.88;1039093;28;19960;-71
2022/06/10 01:36:03;;;;;;;;;;;;;;;10.19;100.00;96414.66;1029346;28;20004;-70
2022/06/10 01:36:58;;;;;;;;;;;;;;;10.19;100.00;96413.88;1034680;28;19937;-70
2022/06/10 01:37:33;;;;;;;;;;;;;;;10.17;100.00;96410.72;1031036;28;20079;-70
2022/06/10 01:38:24;;;;;;;;;;;;;;;10.19;100.00;96408.63;1034910;28;19943;-71
2022/06/10 01:39:05;;;;;;;;;;;;;;;10.12;100.00;96406.97;1020759;28;20324;-70
2022/06/10 01:39:48;;;;;;;;;;;;;;;10.12;100.00;96414.84;1034809;28;20296;-71
2022/06/10 01:40:18;;;;;;;;;;;;;;;10.12;100.00;96414.84;1022996;29;20009;-70
2022/06/10 01:40:54;;;;;;;;;;;;;;;10.11;100.00;96423.75;1020386;29;19926;-72
2022/06/10 01:41:24;;;;;;;;;;;;;;;10.10;100.00;96416.16;1025494;28;19970;-72
2022/06/10 01:41:56;;;;;;;;;;;;;;;10.10;100.00;96414.31;1028382;28;20327;-72
2022/06/10 01:42:28;;;;;;;;;;;;;;;10.07;100.00;96412.16;1032608;28;19930;-69
2022/06/10 01:43:19;;;;;;;;;;;;;;;10.08;100.00;96418.19;1030763;28;19910;-71
2022/06/10 01:43:56;;;;;;;;;;;;;;;10.08;100.00;96416.38;1022287;29;19910;-72
2022/06/10 01:44:45;;;;;;;;;;;;;;;10.10;100.00;96411.69;1018713;29;19938;-68
2022/06/10 01:45:15;;;;;;;;;;;;;;;10.08;100.00;96419.00;1030802;28;19988;-72
2022/06/10 01:45:51;;;;;;;;;;;;;;;10.06;100.00;96425.50;1037458;28;19986;-69
2022/06/10 01:46:29;;;;;;;;;;;;;;;10.07;100.00;96417.41;1042473;28;19904;-70
2022/06/10 01:46:59;;;;;;;;;;;;;;;10.06;100.00;96415.84;1037219;28;19905;-73
2022/06/10 01:47:33;;;;;;;;;;;;;;;10.07;100.00;96421.88;1038262;28;19905;-70
2022/06/10 01:48:05;;;;;;;;;;;;;;;10.05;100.00;96422.09;1034985;28;19913;-71
2022/06/10 01:48:42;;;;;;;;;;;;;;;10.08;100.00;96420.81;1034680;28;19952;-69
2022/06/10 01:49:24;;;;;;;;;;;;;;;10.05;100.00;96422.09;1021151;28;20412;-70
2022/06/10 01:49:58;;;;;;;;;;;;;;;10.05;100.00;96416.84;1022858;28;19910;-70
2022/06/10 01:50:47;;;;;;;;;;;;;;;10.05;100.00;96424.72;1018903;29;19907;-72
2022/06/10 01:51:21;;;;;;;;;;;;;;;10.01;100.00;96422.81;1027198;28;19910;-69
2022/06/10 01:52:10;;;;;;;;;;;;;;;10.01;100.00;96423.63;1026183;28;19910;-71
2022/06/10 01:52:56;;;;;;;;;;;;;;;9.96;100.00;96425.38;1034644;28;20005;-70
2022/06/10 01:53:28;;;;;;;;;;;;;;;9.97;100.00;96422.53;1035262;28;19920;-70
2022/06/10 01:54:00;;;;;;;;;;;;;;;9.97;100.00;96432.22;1035713;28;19906;-70
2022/06/10 01:54:31;;;;;;;;;;;;;;;9.96;100.00;96422.75;1030232;28;19914;-70
2022/06/10 01:55:07;;;;;;;;;;;;;;;9.96;100.00;96431.44;1030731;28;19910;-70
2022/06/10 01:55:45;;;;;;;;;;;;;;;9.94;100.00;96427.44;1032394;28;19914;-70
2022/06/10 01:56:18;;;;;;;;;;;;;;;9.96;100.00;96431.44;1032862;28;20064;-69
2022/06/10 01:56:48;;;;;;;;;;;;;;;9.94;100.00;96432.69;1023140;29;19949;-70
2022/06/10 01:57:31;;;;;;;;;;;;;;;9.94;100.00;96430.88;1024376;28;19925;-71
2022/06/10 01:58:06;;;;;;;;;;;;;;;9.94;100.00;96427.44;1023420;28;19966;-70
2022/06/10 01:58:41;;;;;;;;;;;;;;;9.94;100.00;96432.69;1025182;28;20021;-71
2022/06/10 01:59:27;;;;;;;;;;;;;;;9.93;100.00;96431.91;1030120;28;20334;-71
2022/06/10 02:00:04;;;;;;;;;;;;;;;9.94;100.00;96427.44;1029292;28;19914;-70
2022/06/10 02:00:35;;;;;;;;;;;;;;;9.96;100.00;96431.44;1030632;28;20376;-72
2022/06/10 02:01:07;;;;;;;;;;;;;;;9.93;100.00;96431.91;1032082;28;20395;-69
2022/06/10 02:01:38;;;;;;;;;;;;;;;9.95;100.00;96432.44;1032180;28;19924;-71
2022/06/10 02:02:10;;;;;;;;;;;;;;;9.94;100.00;96430.88;1030818;28;19918;-69
2022/06/10 02:02:42;;;;;;;;;;;;;;;9.93;100.00;96431.91;1030635;28;19913;-70
2022/06/10 02:03:21;;;;;;;;;;;;;;;9.94;100.00;96440.56;1027561;28;19925;-69
2022/06/10 02:03:52;;;;;;;;;;;;;;;9.88;100.00;96429.19;1028554;28;20387;-71
2022/06/10 02:04:23;;;;;;;;;;;;;;;9.87;100.00;96430.25;1032218;28;19914;-70
2022/06/10 02:04:55;;;;;;;;;;;;;;;9.87;100.00;96432.88;1028358;28;19921;-70
2022/06/10 02:05:27;;;;;;;;;;;;;;;9.87;100.00;96438.09;1027505;28;20014;-69
2022/06/10 02:05:59;;;;;;;;;;;;;;;9.87;100.00;96433.66;1026902;28;19922;-70
2022/06/10 02:06:32;;;;;;;;;;;;;;;9.89;100.00;96436.03;1024108;28;19961;-71
2022/06/10 02:07:04;;;;;;;;;;;;;;;9.89;100.00;96436.84;1029009;28;19930;-72
2022/06/10 02:07:35;;;;;;;;;;;;;;;9.87;100.00;96438.09;1031232;28;19918;-71
2022/06/10 02:08:14;;;;;;;;;;;;;;;9.88;100.00;96435.22;1028352;28;19929;-70
2022/06/10 02:08:47;;;;;;;;;;;;;;;9.88;100.00;96437.06;1030944;28;20290;-71
2022/06/10 02:09:19;;;;;;;;;;;;;;;9.88;100.00;96439.69;1026995;28;19925;-70
2022/06/10 02:09:54;;;;;;;;;;;;;;;9.88;100.00;96440.47;1031884;28;19969;-70
2022/06/10 02:10:29;;;;;;;;;;;;;;;9.88;100.00;96439.69;1034347;28;20012;-70
2022/06/10 02:11:00;;;;;;;;;;;;;;;9.89;100.00;96436.03;1029489;28;20414;-70
2022/06/10 02:11:31;;;;;;;;;;;;;;;9.89;100.00;96442.09;1036227;28;19914;-71
2022/06/10 02:12:03;;;;;;;;;;;;;;;9.89;100.00;96436.03;1036461;28;20367;-71
2022/06/10 02:12:36;;;;;;;;;;;;;;;9.90;100.00;96435.00;1035812;28;19923;-70
2022/06/10 02:13:07;;;;;;;;;;;;;;;9.90;100.00;96440.25;1028133;28;19944;-71
2022/06/10 02:14:03;;;;;;;;;;;;;;;9.95;100.00;96442.94;1024244;29;19921;-70
2022/06/10 02:14:37;;;;;;;;;;;;;;;9.96;100.00;96436.66;1028274;28;19953;-72
2022/06/10 02:15:30;;;;;;;;;;;;;;;9.95;100.00;96444.75;1036163;28;19945;-73
2022/06/10 02:16:00;;;;;;;;;;;;;;;9.93;100.00;96439.78;1036473;28;19913;-72
2022/06/10 02:16:31;;;;;;;;;;;;;;;9.93;100.00;96442.41;1036122;28;19917;-70
2022/06/10 02:17:01;;;;;;;;;;;;;;;9.90;100.00;96435.78;1035628;28;19949;-70
2022/06/10 02:17:36;;;;;;;;;;;;;;;9.90;100.00;96435.00;1032477;28;19914;-70
2022/06/10 02:18:11;;;;;;;;;;;;;;;9.88;100.00;96443.09;1032010;28;19921;-70
2022/06/10 02:18:50;;;;;;;;;;;;;;;9.87;100.00;96438.91;1029531;28;19918;-70
2022/06/10 02:19:21;;;;;;;;;;;;;;;9.86;100.00;96444.41;1032131;28;19965;-71
2022/06/10 02:19:56;;;;;;;;;;;;;;;9.87;100.00;96443.34;1033959;28;20459;-71
2022/06/10 02:20:26;;;;;;;;;;;;;;;9.83;100.00;96442.25;1029726;28;19924;-71
2022/06/10 02:20:58;;;;;;;;;;;;;;;9.82;100.00;96435.41;1028918;28;19917;-70
2022/06/10 02:21:40;;;;;;;;;;;;;;;9.82;100.00;96445.88;1028261;28;20420;-71
2022/06/10 02:22:13;;;;;;;;;;;;;;;9.80;100.00;96445.34;1026337;28;20020;-70
2022/06/10 02:22:43;;;;;;;;;;;;;;;9.81;100.00;96449.53;1028423;28;19921;-71
2022/06/10 02:23:14;;;;;;;;;;;;;;;9.79;100.00;96441.13;1027887;28;19987;-72
2022/06/10 02:23:45;;;;;;;;;;;;;;;9.80;100.00;96448.75;1028475;28;19918;-73
2022/06/10 02:24:20;;;;;;;;;;;;;;;9.82;100.00;96451.13;1032292;28;20373;-68
2022/06/10 02:24:51;;;;;;;;;;;;;;;9.83;100.00;96447.50;1031214;28;20402;-73
2022/06/10 02:25:22;;;;;;;;;;;;;;;9.81;100.00;96452.97;1024107;29;20367;-70
2022/06/10 02:25:54;;;;;;;;;;;;;;;9.81;100.00;96446.94;1020045;29;19922;-70
2022/06/10 02:26:24;;;;;;;;;;;;;;;9.79;100.00;96451.59;1021029;28;19926;-70
2022/06/10 02:26:56;;;;;;;;;;;;;;;9.80;100.00;96447.97;1024808;28;19915;-71
2022/06/10 02:27:27;;;;;;;;;;;;;;;9.78;100.00;96450.81;1032166;28;19918;-70
2022/06/10 02:27:58;;;;;;;;;;;;;;;9.82;100.00;96451.13;1027973;28;19914;-70
2022/06/10 02:28:44;;;;;;;;;;;;;;;9.81;100.00;96449.53;1024485;28;20004;-71
2022/06/10 02:29:16;;;;;;;;;;;;;;;9.76;100.00;96452.91;1028131;28;19970;-73
2022/06/10 02:29:51;;;;;;;;;;;;;;;9.77;100.00;96454.47;1028800;28;19925;-72
2022/06/10 02:30:26;;;;;;;;;;;;;;;9.76;100.00;96452.91;1030909;28;19918;-71
2022/06/10 02:30:57;;;;;;;;;;;;;;;9.77;100.00;96451.06;1033733;28;20302;-70
2022/06/10 02:31:29;;;;;;;;;;;;;;;9.75;100.00;96450.50;1033358;28;19924;-69
2022/06/10 02:31:59;;;;;;;;;;;;;;;9.72;100.00;96450.97;1031656;28;19918;-71
2022/06/10 02:32:29;;;;;;;;;;;;;;;9.72;100.00;96448.34;1031717;28;20310;-70
2022/06/10 02:33:00;;;;;;;;;;;;;;;9.74;100.00;96459.41;1032190;28;20017;-70
2022/06/10 02:33:30;;;;;;;;;;;;;;;9.77;100.00;96451.06;1028080;28;19918;-70
2022/06/10 02:34:01;;;;;;;;;;;;;;;9.78;100.00;96455.25;1032183;28;19925;-70
2022/06/10 02:34:31;;;;;;;;;;;;;;;9.80;100.00;96456.63;1032078;28;19952;-72
2022/06/10 02:35:01;;;;;;;;;;;;;;;9.81;100.00;96454.78;1036380;28;19914;-70
2022/06/10 02:35:37;;;;;;;;;;;;;;;9.79;100.00;96451.59;1035757;28;20371;-70
2022/06/10 02:36:10;;;;;;;;;;;;;;;9.77;100.00;96457.09;1032942;28;19910;-68
2022/06/10 02:36:47;;;;;;;;;;;;;;;9.77;100.00;96454.47;1036225;28;19910;-70
2022/06/10 02:37:26;;;;;;;;;;;;;;;9.76;100.00;96458.13;1032725;28;19906;-70
2022/06/10 02:38:05;;;;;;;;;;;;;;;9.75;100.00;96460.97;1027913;28;20002;-71
2022/06/10 02:38:40;;;;;;;;;;;;;;;9.77;100.00;96464.16;1027820;28;19926;-70
2022/06/10 02:39:19;;;;;;;;;;;;;;;9.78;100.00;96458.69;1030791;28;19909;-70
2022/06/10 02:39:56;;;;;;;;;;;;;;;9.76;100.00;96457.31;1034759;28;19996;-70
2022/06/10 02:40:28;;;;;;;;;;;;;;;9.78;100.00;96460.50;1031324;28;19996;-71
2022/06/10 02:41:09;;;;;;;;;;;;;;;9.77;100.00;96458.94;1027938;28;19918;-71
2022/06/10 02:41:43;;;;;;;;;;;;;;;9.77;100.00;96453.69;1028194;28;19910;-71
2022/06/10 02:42:17;;;;;;;;;;;;;;;9.78;100.00;96460.50;1029328;28;19915;-70
2022/06/10 02:42:50;;;;;;;;;;;;;;;9.79;100.00;96454.22;1023897;29;19919;-71
2022/06/10 02:43:31;;;;;;;;;;;;;;;9.77;100.00;96456.31;1024237;29;20450;-71
2022/06/10 02:44:01;;;;;;;;;;;;;;;9.79;100.00;96456.84;1028347;28;19914;-70
2022/06/10 02:44:49;;;;;;;;;;;;;;;9.78;100.00;96455.25;1031752;28;19910;-70
2022/06/10 02:45:23;;;;;;;;;;;;;;;9.79;100.00;96457.66;1032861;28;20162;-71
2022/06/10 02:46:07;;;;;;;;;;;;;;;9.76;100.00;96452.91;1032663;28;19914;-70
2022/06/10 02:46:44;;;;;;;;;;;;;;;9.77;100.00;96453.69;1036823;28;20328;-70
2022/06/10 02:47:14;;;;;;;;;;;;;;;9.79;100.00;96462.09;1032549;28;20023;-72
2022/06/10 02:47:49;;;;;;;;;;;;;;;9.77;100.00;96459.72;1035340;28;19985;-71
2022/06/10 02:48:22;;;;;;;;;;;;;;;9.77;100.00;96459.72;1036566;28;19917;-71
2022/06/10 02:49:09;;;;;;;;;;;;;;;9.76;100.00;96457.31;1033580;28;19917;-72
2022/06/10 02:49:39;;;;;;;;;;;;;;;9.75;100.00;96455.75;1032632;28;20434;-68
2022/06/10 02:50:10;;;;;;;;;;;;;;;9.74;100.00;96462.03;1032605;28;19923;-70
2022/06/10 02:50:40;;;;;;;;;;;;;;;9.75;100.00;96460.97;1030636;28;19914;-71
2022/06/10 02:51:10;;;;;;;;;;;;;;;9.77;100.00;96464.97;1032289;28;19992;-70
2022/06/10 02:51:40;;;;;;;;;;;;;;;9.74;100.00;96456.78;1036595;28;20321;-70
2022/06/10 02:52:11;;;;;;;;;;;;;;;9.73;100.00;96457.81;1035950;28;19913;-71
2022/06/10 02:52:41;;;;;;;;;;;;;;;9.72;100.00;96466.69;1032015;28;19918;-70
2022/06/10 02:53:12;;;;;;;;;;;;;;;9.73;100.00;96466.47;1036081;28;19924;-70
2022/06/10 02:53:42;;;;;;;;;;;;;;;9.72;100.00;96458.84;1036192;28;20298;-70
2022/06/10 02:54:15;;;;;;;;;;;;;;;9.72;100.00;96462.25;1035892;28;19994;-70
2022/06/10 02:54:45;;;;;;;;;;;;;;;9.70;100.00;96460.91;1035689;28;19982;-72
2022/06/10 02:55:17;;;;;;;;;;;;;;;9.70;100.00;96463.53;1032094;28;19921;-70
2022/06/10 02:55:47;;;;;;;;;;;;;;;9.70;100.00;96460.91;1032052;28;19926;-70
2022/06/10 02:56:23;;;;;;;;;;;;;;;9.67;100.00;96470.03;1032090;28;20284;-71
2022/06/10 02:56:54;;;;;;;;;;;;;;;9.67;100.00;96468.22;1033075;28;19961;-72
2022/06/10 03:01:11;;;;;;;;;;;;;;;9.68;100.00;96469.00;1036154;28;19935;-70
2022/06/10 03:01:40;;;;;;;;;;;;;;;9.64;100.00;96475.75;1035993;28;19941;-71